Euro IV — IQNH — position and weather

sailwx.info

Track history (hours):
 
Tides and Currents Weather Stations Pressure Air Temp Water Temp Dewpoint Dewpoint Depression Visibility Wind Speed Wind Dir Waves Ship Positions

Euro IV

Last reported at 2015-May-24 17:33 UTC. Time now 2015-May-24 21:29 UTC.
Position N 44°06' E 009°50'.

Length 25 m; draft 1.3 m.

Type: Passenger vessel. MMSI: 247131500.

Date/timePositionNaut miles runAvg speedWind from/ knotsBaromVisibWave heightAir tempDewpointWater temp
2015-May-24 17:33N 44°06' E 009°50'10 8.8
2015-May-24 16:25N 44°09' E 009°36'7 7.6
2015-May-24 15:33N 44°06' E 009°44'5 5.1
2015-May-24 14:34N 44°03' E 009°50'3 2.8
2015-May-24 13:33N 44°04' E 009°47'7 6.9
2015-May-24 12:33N 44°09' E 009°39'0 0.0
2015-May-24 11:31N 44°09' E 009°39'5 4.6
2015-May-24 10:32N 44°06' E 009°44'8 7.7
2015-May-24 09:33N 44°04' E 009°54'2 1.5
2015-May-24 08:33N 44°04' E 009°52'2 2.1
2015-May-24 07:33N 44°05' E 009°50'1 0.9
2015-May-24 06:31N 44°06' E 009°50'0 0.0
2015-May-23 16:09N 44°06' E 009°50'3 5.9
2015-May-23 15:34N 44°04' E 009°54'3 2.6
2015-May-23 14:33N 44°03' E 009°50'0 0.0
2015-May-23 13:33N 44°03' E 009°50'0 0.0
2015-May-23 12:33N 44°03' E 009°50'0 0.0
2015-May-23 11:33N 44°03' E 009°50'9 9.4
2015-May-23 10:34N 44°08' E 009°39'1 1.1
2015-May-23 09:34N 44°08' E 009°41'8 8.3
2015-May-23 08:33N 44°03' E 009°50'3 3.1
2015-May-23 07:33N 44°06' E 009°49'0 0.0
2015-May-23 06:33N 44°06' E 009°49'0 0.0
2015-May-21 11:07N 44°06' E 009°49'0 0.0
2015-May-21 10:33N 44°06' E 009°49'0 0.0
2015-May-21 09:33N 44°06' E 009°49'1 1.2
2015-May-21 08:33N 44°05' E 009°51'1 1.2
2015-May-21 07:33N 44°06' E 009°49'0 0.0
2015-May-21 06:33N 44°06' E 009°49'0 0.0
2015-May-20 07:33N 44°06' E 009°50'0 0.0
2015-May-19 15:28N 44°06' E 009°50'3 3.4
2015-May-19 14:33N 44°03' E 009°50'4 4.4
2015-May-19 13:34N 44°05' E 009°45'5 5.4
2015-May-19 12:34N 44°09' E 009°39'0 0.0
2015-May-19 11:33N 44°09' E 009°39'3 3.3
2015-May-19 10:34N 44°07' E 009°43'5 4.8
2015-May-19 09:33N 44°03' E 009°48'3 3.4
2015-May-19 08:33N 44°05' E 009°44'4 4.2
2015-May-19 07:33N 44°06' E 009°50'0 0.0
2015-May-19 06:33N 44°06' E 009°50'3 0.2
2015-May-18 16:33N 44°04' E 009°51'10 9.7
2015-May-18 15:33N 44°09' E 009°39'5 4.8
2015-May-18 14:33N 44°05' E 009°44'5 5.1
2015-May-18 13:33N 44°03' E 009°50'0 0.0
2015-May-18 12:34N 44°03' E 009°50'0 0.0
2015-May-18 11:33N 44°03' E 009°50'1 1.0
2015-May-18 10:33N 44°03' E 009°52'2 2.5
2015-May-18 09:33N 44°04' E 009°54'0 0.1
2015-May-18 08:33N 44°05' E 009°54'3 3.0
2015-May-18 07:33N 44°06' E 009°50'1 0.8
2015-May-18 06:33N 44°06' E 009°50'1 0.1
2015-May-17 15:33N 44°05' E 009°51'2 1.9
2015-May-17 14:33N 44°03' E 009°51'0 0.3
2015-May-17 13:33N 44°03' E 009°50'6 5.6
2015-May-17 12:23N 44°07' E 009°43'3 3.8
2015-May-17 11:33N 44°09' E 009°39'0 0.1
2015-May-17 10:34N 44°09' E 009°39'4 3.9
2015-May-17 09:26N 44°06' E 009°44'0 0.1
2015-May-17 08:33N 44°06' E 009°44'4 4.4
2015-May-17 07:33N 44°06' E 009°50'0 0.4
2015-May-17 06:33N 44°06' E 009°49'0 0.0
2015-May-16 12:34N 44°06' E 009°50'0 0.0
2015-May-16 11:34N 44°06' E 009°50'0 0.2
2015-May-16 10:34N 44°06' E 009°50'6 6.5
2015-May-16 09:34N 44°08' E 009°41'7 6.7
2015-May-16 08:33N 44°03' E 009°48'3 3.0
2015-May-16 07:33N 44°06' E 009°50'0 0.0
2015-May-15 14:33N 44°06' E 009°50'3 3.1
2015-May-15 13:33N 44°03' E 009°50'0 0.0
2015-May-15 12:33N 44°03' E 009°50'0 0.0
2015-May-15 11:33N 44°03' E 009°50'0 0.0
2015-May-15 10:33N 44°03' E 009°50'0 0.0
2015-May-15 09:33N 44°03' E 009°50'0 0.0
2015-May-15 08:33N 44°03' E 009°50'2 2.3
2015-May-15 07:33N 44°05' E 009°50'1 0.9
2015-May-15 06:33N 44°06' E 009°50'  
Track history (hours):
 
Tides and Currents Weather Stations Pressure Air Temp Water Temp Dewpoint Dewpoint Depression Visibility Wind Speed Wind Dir Waves Ship Positions

Euro IV

Last reported at 2015-May-24 17:33 UTC. Time now 2015-May-24 21:29 UTC.
Position N 44°06' E 009°50'.

Length 25 m; draft 1.3 m.

Type: Passenger vessel. MMSI: 247131500.

Date/timePositionNaut miles runAvg speedWind from/ knotsBaromVisibWave heightAir tempDewpointWater temp
2015-May-24 17:33N 44°06' E 009°50'10 8.8
2015-May-24 16:25N 44°09' E 009°36'7 7.6
2015-May-24 15:33N 44°06' E 009°44'5 5.1
2015-May-24 14:34N 44°03' E 009°50'3 2.8
2015-May-24 13:33N 44°04' E 009°47'7 6.9
2015-May-24 12:33N 44°09' E 009°39'0 0.0
2015-May-24 11:31N 44°09' E 009°39'5 4.6
2015-May-24 10:32N 44°06' E 009°44'8 7.7
2015-May-24 09:33N 44°04' E 009°54'2 1.5
2015-May-24 08:33N 44°04' E 009°52'2 2.1
2015-May-24 07:33N 44°05' E 009°50'1 0.9
2015-May-24 06:31N 44°06' E 009°50'0 0.0
2015-May-23 16:09N 44°06' E 009°50'3 5.9
2015-May-23 15:34N 44°04' E 009°54'3 2.6
2015-May-23 14:33N 44°03' E 009°50'0 0.0
2015-May-23 13:33N 44°03' E 009°50'0 0.0
2015-May-23 12:33N 44°03' E 009°50'0 0.0
2015-May-23 11:33N 44°03' E 009°50'9 9.4
2015-May-23 10:34N 44°08' E 009°39'1 1.1
2015-May-23 09:34N 44°08' E 009°41'8 8.3
2015-May-23 08:33N 44°03' E 009°50'3 3.1
2015-May-23 07:33N 44°06' E 009°49'0 0.0
2015-May-23 06:33N 44°06' E 009°49'0 0.0
2015-May-21 11:07N 44°06' E 009°49'0 0.0
2015-May-21 10:33N 44°06' E 009°49'0 0.0
2015-May-21 09:33N 44°06' E 009°49'1 1.2
2015-May-21 08:33N 44°05' E 009°51'1 1.2
2015-May-21 07:33N 44°06' E 009°49'0 0.0
2015-May-21 06:33N 44°06' E 009°49'0 0.0
2015-May-20 07:33N 44°06' E 009°50'0 0.0
2015-May-19 15:28N 44°06' E 009°50'3 3.4
2015-May-19 14:33N 44°03' E 009°50'4 4.4
2015-May-19 13:34N 44°05' E 009°45'5 5.4
2015-May-19 12:34N 44°09' E 009°39'0 0.0
2015-May-19 11:33N 44°09' E 009°39'3 3.3
2015-May-19 10:34N 44°07' E 009°43'5 4.8
2015-May-19 09:33N 44°03' E 009°48'3 3.4
2015-May-19 08:33N 44°05' E 009°44'4 4.2
2015-May-19 07:33N 44°06' E 009°50'0 0.0
2015-May-19 06:33N 44°06' E 009°50'3 0.2
2015-May-18 16:33N 44°04' E 009°51'10 9.7
2015-May-18 15:33N 44°09' E 009°39'5 4.8
2015-May-18 14:33N 44°05' E 009°44'5 5.1
2015-May-18 13:33N 44°03' E 009°50'0 0.0
2015-May-18 12:34N 44°03' E 009°50'0 0.0
2015-May-18 11:33N 44°03' E 009°50'1 1.0
2015-May-18 10:33N 44°03' E 009°52'2 2.5
2015-May-18 09:33N 44°04' E 009°54'0 0.1
2015-May-18 08:33N 44°05' E 009°54'3 3.0
2015-May-18 07:33N 44°06' E 009°50'1 0.8
2015-May-18 06:33N 44°06' E 009°50'1 0.1
2015-May-17 15:33N 44°05' E 009°51'2 1.9
2015-May-17 14:33N 44°03' E 009°51'0 0.3
2015-May-17 13:33N 44°03' E 009°50'6 5.6
2015-May-17 12:23N 44°07' E 009°43'3 3.8
2015-May-17 11:33N 44°09' E 009°39'0 0.1
2015-May-17 10:34N 44°09' E 009°39'4 3.9
2015-May-17 09:26N 44°06' E 009°44'0 0.1
2015-May-17 08:33N 44°06' E 009°44'4 4.4
2015-May-17 07:33N 44°06' E 009°50'0 0.4
2015-May-17 06:33N 44°06' E 009°49'0 0.0
2015-May-16 12:34N 44°06' E 009°50'0 0.0
2015-May-16 11:34N 44°06' E 009°50'0 0.2
2015-May-16 10:34N 44°06' E 009°50'6 6.5
2015-May-16 09:34N 44°08' E 009°41'7 6.7
2015-May-16 08:33N 44°03' E 009°48'3 3.0
2015-May-16 07:33N 44°06' E 009°50'0 0.0
2015-May-15 14:33N 44°06' E 009°50'3 3.1
2015-May-15 13:33N 44°03' E 009°50'0 0.0
2015-May-15 12:33N 44°03' E 009°50'0 0.0
2015-May-15 11:33N 44°03' E 009°50'0 0.0
2015-May-15 10:33N 44°03' E 009°50'0 0.0
2015-May-15 09:33N 44°03' E 009°50'0 0.0
2015-May-15 08:33N 44°03' E 009°50'2 2.3
2015-May-15 07:33N 44°05' E 009°50'1 0.9
2015-May-15 06:33N 44°06' E 009°50'  

Dump ship's entire track history